Beaumont, Kentucky
Current Conditions -  °F | °C
As of 3:55 PM on Saturday 25 Oct 2014 (Local Time) from KGLW Reporting Station
Clear Clear  
Wind Chill: 75°   Ceiling: Unl
Heat Index: 75°   Visibility: 10mi
Dew Point: 60°   Wind: 6mph
Humidity: 59%   Direction: 260°W
Pressure: 29.98"   Gusts: NA
Location:  36.88°N, 85.65°W
Report Text: KGLW 252055Z AUTO 26005KT 10SM CLR 24/15 A2998 RMK AO2 T02370153
Loading
Personal Weather Stations






























Interactive Weather Map
Tropical Storm Tracking
New forecast layout! Learn more

10-Day Weather Forecast

Advertisements
Track Severe Weather on mobile